createdAt,value
2019-04-21T00:00:17.026Z,5.80
2019-04-21T00:02:44.498Z,9.10
2019-04-21T00:05:35.190Z,9.78
2019-04-21T00:08:05.034Z,8.55
2019-04-21T00:10:28.418Z,7.08
2019-04-21T00:12:53.508Z,7.08
2019-04-21T00:15:18.154Z,7.75
2019-04-21T00:17:35.038Z,8.30
2019-04-21T00:20:17.612Z,7.00
2019-04-21T00:22:46.649Z,7.50
2019-04-21T00:25:16.623Z,6.78
2019-04-21T00:27:47.766Z,7.17
2019-04-21T00:30:16.672Z,6.25
2019-04-21T00:32:35.611Z,9.18
2019-04-21T00:35:00.913Z,7.53
2019-04-21T00:37:36.517Z,8.20
2019-04-21T00:40:09.451Z,7.08
2019-04-21T00:42:37.403Z,7.50
2019-04-21T00:45:05.967Z,7.92
2019-04-21T00:47:35.843Z,8.10
2019-04-21T00:50:06.258Z,9.78
2019-04-21T00:52:52.558Z,8.08
2019-04-21T00:55:27.674Z,8.08
2019-04-21T00:57:58.696Z,7.03
2019-04-21T01:00:20.207Z,6.00
2019-04-21T01:02:52.888Z,10.28
2019-04-21T01:05:16.673Z,7.22
2019-04-21T01:07:41.981Z,9.00
2019-04-21T01:10:03.887Z,11.40
2019-04-21T01:12:37.905Z,8.63
2019-04-21T01:15:15.041Z,7.33
2019-04-21T01:17:35.723Z,7.42
2019-04-21T01:19:57.456Z,7.53
2019-04-21T01:22:08.619Z,9.93
2019-04-21T01:24:40.023Z,8.10
2019-04-21T01:27:12.649Z,9.68
2019-04-21T01:29:53.908Z,10.40
2019-04-21T01:32:26.955Z,8.13
2019-04-21T01:34:47.070Z,8.23
2019-04-21T01:37:14.164Z,6.62
2019-04-21T01:39:46.953Z,7.58
2019-04-21T01:42:09.219Z,10.43
2019-04-21T01:44:43.065Z,6.97
2019-04-21T01:47:02.857Z,12.15
2019-04-21T01:49:26.436Z,9.98
2019-04-21T01:52:22.212Z,9.33
2019-04-21T01:54:55.820Z,7.80
2019-04-21T01:57:25.910Z,7.95
2019-04-21T01:59:45.750Z,9.67
2019-04-21T02:02:23.029Z,9.73
2019-04-21T02:04:57.306Z,9.83
2019-04-21T02:07:15.851Z,10.28
2019-04-21T02:09:42.043Z,9.20
2019-04-21T02:12:14.769Z,10.40
2019-04-21T02:14:50.582Z,9.38
2019-04-21T02:17:14.722Z,8.03
2019-04-21T02:19:31.322Z,9.98
2019-04-21T02:21:59.335Z,14.78
2019-04-21T02:24:42.737Z,11.03
2019-04-21T02:27:08.580Z,13.68
2019-04-21T02:29:37.661Z,11.40
2019-04-21T02:32:11.325Z,10.95
2019-04-21T02:34:40.919Z,12.50
2019-04-21T02:44:37.575Z,10.00
2019-04-21T02:47:19.085Z,9.60
2019-04-21T02:49:37.354Z,9.45
2019-04-21T02:52:06.188Z,9.68
2019-04-21T02:57:01.602Z,9.93
2019-04-21T02:59:28.539Z,9.68
2019-04-21T03:04:49.513Z,9.13
2019-04-21T03:07:17.881Z,9.23
2019-04-21T03:09:47.644Z,9.28
2019-04-21T03:12:22.100Z,9.00
2019-04-21T03:17:14.605Z,8.95
2019-04-21T03:19:45.189Z,9.03
2019-04-21T03:22:14.518Z,10.05
2019-04-21T03:27:18.614Z,13.72
2019-04-21T03:32:33.161Z,11.97
2019-04-21T03:37:19.138Z,9.05
2019-04-21T03:39:29.091Z,11.70
2019-04-21T03:42:00.218Z,9.33
2019-04-21T03:44:24.727Z,12.73
2019-04-21T03:46:52.639Z,12.05
2019-04-21T03:49:27.819Z,12.75
2019-04-21T03:51:47.547Z,10.85
2019-04-21T03:54:13.714Z,10.95
2019-04-21T03:59:07.399Z,18.70
2019-04-21T04:01:40.650Z,13.85
2019-04-21T04:04:24.499Z,14.13
2019-04-21T04:09:31.381Z,9.58
2019-04-21T04:17:06.104Z,16.73
2019-04-21T04:19:22.353Z,17.07
2019-04-21T04:21:47.632Z,14.28
2019-04-21T04:26:39.531Z,25.75
2019-04-21T04:29:19.178Z,15.63
2019-04-21T04:34:04.758Z,14.20
2019-04-21T04:39:42.800Z,16.75
2019-04-21T04:42:12.576Z,13.25
2019-04-21T04:54:40.082Z,13.25
2019-04-21T04:56:58.597Z,15.95
2019-04-21T04:59:41.454Z,14.40
2019-04-21T05:04:23.813Z,15.15
2019-04-21T05:14:21.819Z,17.87
2019-04-21T05:21:34.409Z,12.33
2019-04-21T05:23:51.203Z,14.25
2019-04-21T05:26:14.945Z,17.52
2019-04-21T05:28:43.645Z,18.42
2019-04-21T05:31:33.060Z,16.45
2019-04-21T05:34:07.479Z,22.77
2019-04-21T05:36:44.640Z,18.20
2019-04-21T05:39:24.831Z,17.05
2019-04-21T05:41:47.797Z,21.85
2019-04-21T05:44:35.499Z,19.65
2019-04-21T05:47:08.110Z,18.82
2019-04-21T05:49:49.934Z,22.20
2019-04-21T05:52:13.252Z,22.82
2019-04-21T05:54:52.770Z,21.75
2019-04-21T05:57:09.931Z,15.48
2019-04-21T05:59:48.000Z,20.75
2019-04-21T06:07:18.975Z,25.72
2019-04-21T06:09:43.898Z,20.23
2019-04-21T06:12:08.919Z,21.62
2019-04-21T06:14:37.224Z,22.22
2019-04-21T06:17:13.128Z,20.12
2019-04-21T06:19:36.760Z,20.90
2019-04-21T06:21:57.138Z,23.00
2019-04-21T06:24:40.729Z,24.75
2019-04-21T06:29:29.787Z,24.45
2019-04-21T06:34:24.416Z,26.37
2019-04-21T06:36:57.331Z,21.37
2019-04-21T06:41:49.231Z,22.42
2019-04-21T06:44:38.871Z,16.97
2019-04-21T06:46:45.908Z,17.62
2019-04-21T06:49:13.387Z,17.98
2019-04-21T06:51:43.343Z,23.02
2019-04-21T06:59:22.162Z,16.42
2019-04-21T07:01:44.578Z,24.75
2019-04-21T07:04:11.240Z,14.53
2019-04-21T07:06:35.581Z,18.60
2019-04-21T07:09:13.457Z,16.85
2019-04-21T07:11:25.572Z,14.78
2019-04-21T07:14:13.476Z,13.68
2019-04-21T07:16:25.710Z,11.53
2019-04-21T07:19:03.988Z,13.32
2019-04-21T07:21:21.918Z,13.08
2019-04-21T07:23:53.855Z,13.38
2019-04-21T07:26:23.775Z,13.40
2019-04-21T07:28:47.961Z,14.70
2019-04-21T07:31:31.723Z,14.47
2019-04-21T07:33:53.914Z,15.83
2019-04-21T07:36:20.041Z,14.07
2019-04-21T07:38:34.056Z,13.08
2019-04-21T07:40:59.685Z,13.85
2019-04-21T07:43:30.044Z,12.03
2019-04-21T07:45:52.482Z,11.88
2019-04-21T07:48:35.863Z,13.53
2019-04-21T07:51:17.379Z,15.98
2019-04-21T07:53:53.335Z,17.65
2019-04-21T07:55:59.544Z,16.52
2019-04-21T07:58:47.731Z,14.05
2019-04-21T08:01:11.739Z,15.75
2019-04-21T08:03:38.886Z,14.55
2019-04-21T08:06:13.883Z,16.82
2019-04-21T08:08:34.232Z,13.78
2019-04-21T08:11:02.926Z,14.83
2019-04-21T08:13:39.245Z,14.70
2019-04-21T08:16:03.101Z,13.85
2019-04-21T08:18:28.642Z,12.85
2019-04-21T08:20:53.428Z,12.88
2019-04-21T08:23:29.696Z,12.10
2019-04-21T08:26:03.257Z,12.47
2019-04-21T08:28:21.348Z,9.13
2019-04-21T08:30:47.806Z,12.73
2019-04-21T08:33:24.906Z,12.50
2019-04-21T08:36:07.128Z,13.25
2019-04-21T08:38:15.061Z,12.88
2019-04-21T08:40:45.693Z,15.20
2019-04-21T08:43:14.291Z,14.68
2019-04-21T08:45:41.603Z,13.48
2019-04-21T08:48:05.905Z,11.93
2019-04-21T08:50:30.887Z,15.32
2019-04-21T08:53:02.362Z,14.00
2019-04-21T08:55:37.576Z,10.95
2019-04-21T09:00:40.239Z,13.50
2019-04-21T09:03:11.720Z,13.15
2019-04-21T09:05:37.799Z,12.15
2019-04-21T09:08:06.767Z,12.93
2019-04-21T09:10:37.357Z,10.35
2019-04-21T09:12:58.926Z,11.80
2019-04-21T09:15:24.905Z,11.38
2019-04-21T09:17:49.182Z,13.93
2019-04-21T09:20:31.082Z,9.13
2019-04-21T09:22:54.235Z,9.30
2019-04-21T09:25:26.963Z,11.33
2019-04-21T09:27:53.724Z,10.85
2019-04-21T09:30:06.912Z,15.72
2019-04-21T09:32:36.344Z,10.48
2019-04-21T09:35:07.287Z,11.38
2019-04-21T09:37:43.488Z,7.92
2019-04-21T09:40:00.891Z,12.25
2019-04-21T09:42:36.018Z,13.65
2019-04-21T09:44:59.403Z,9.50
2019-04-21T09:47:33.620Z,9.55
2019-04-21T09:49:51.971Z,10.78
2019-04-21T09:52:20.904Z,7.85
2019-04-21T09:54:56.483Z,10.93
2019-04-21T09:57:26.419Z,10.43
2019-04-21T09:59:49.046Z,7.15
2019-04-21T10:02:17.483Z,7.78
2019-04-21T10:04:39.964Z,7.40
2019-04-21T10:07:06.835Z,6.05
2019-04-21T10:09:33.382Z,6.97
2019-04-21T10:12:00.837Z,6.75
2019-04-21T10:14:28.599Z,7.37
2019-04-21T10:17:15.019Z,6.70
2019-04-21T10:19:41.986Z,5.80
2019-04-21T10:22:08.513Z,5.12
2019-04-21T10:24:35.045Z,5.15
2019-04-21T10:27:04.132Z,5.35
2019-04-21T10:29:32.967Z,6.85
2019-04-21T10:31:59.598Z,6.80
2019-04-21T10:34:27.271Z,5.87
2019-04-21T10:36:53.607Z,5.17
2019-04-21T10:39:19.992Z,5.75
2019-04-21T10:41:47.627Z,6.12
2019-04-21T10:44:14.074Z,6.05
2019-04-21T10:46:40.578Z,7.12
2019-04-21T10:49:07.046Z,5.97
2019-04-21T10:51:33.182Z,6.08
2019-04-21T10:53:59.829Z,5.75
2019-04-21T10:56:32.635Z,4.60
2019-04-21T10:58:54.255Z,7.08
2019-04-21T11:01:23.209Z,5.90
2019-04-21T11:04:00.714Z,5.58
2019-04-21T11:06:28.591Z,6.30
2019-04-21T11:08:57.183Z,7.30
2019-04-21T11:11:23.868Z,7.92
2019-04-21T11:13:50.623Z,6.45
2019-04-21T11:16:17.302Z,7.75
2019-04-21T11:18:44.123Z,6.78
2019-04-21T11:21:11.182Z,7.12
2019-04-21T11:23:37.590Z,5.37
2019-04-21T11:26:04.394Z,6.45
2019-04-21T11:28:31.195Z,5.40
2019-04-21T11:30:57.559Z,6.87
2019-04-21T11:33:24.945Z,10.03
2019-04-21T11:35:51.306Z,6.35
2019-04-21T11:38:23.622Z,5.65
2019-04-21T11:40:47.644Z,7.97
2019-04-21T11:43:13.887Z,5.35
2019-04-21T11:45:40.345Z,6.10
2019-04-21T11:48:26.078Z,7.00
2019-04-21T11:50:53.204Z,4.85
2019-04-21T11:53:20.931Z,5.62
2019-04-21T11:55:50.140Z,5.20
2019-04-21T11:58:15.992Z,5.30
2019-04-21T12:00:43.684Z,6.92
2019-04-21T12:03:12.398Z,6.42
2019-04-21T12:05:39.405Z,5.75
2019-04-21T12:08:17.684Z,5.08
2019-04-21T12:10:33.816Z,5.03
2019-04-21T12:13:01.368Z,6.53
2019-04-21T12:15:29.188Z,4.72
2019-04-21T12:17:56.463Z,4.78
2019-04-21T12:20:24.320Z,5.72
2019-04-21T12:22:50.900Z,7.42
2019-04-21T12:25:19.070Z,5.62
2019-04-21T12:27:45.710Z,5.37
2019-04-21T12:30:13.686Z,5.58
2019-04-21T12:32:53.940Z,6.50
2019-04-21T12:35:20.195Z,10.15
2019-04-21T12:37:46.893Z,6.72
2019-04-21T12:40:14.746Z,5.62
2019-04-21T12:42:42.378Z,5.22
2019-04-21T12:45:10.627Z,6.35
2019-04-21T12:47:37.776Z,5.20
2019-04-21T12:50:06.808Z,5.08
2019-04-21T12:52:33.744Z,5.47
2019-04-21T12:54:59.971Z,5.30
2019-04-21T12:57:28.665Z,5.53
2019-04-21T12:59:54.980Z,6.95
2019-04-21T13:02:21.969Z,6.87
2019-04-21T13:04:50.614Z,4.90
2019-04-21T13:07:17.385Z,5.87
2019-04-21T13:09:44.298Z,6.00
2019-04-21T13:12:11.225Z,5.03
2019-04-21T13:14:37.899Z,8.13
2019-04-21T13:17:05.652Z,5.90
2019-04-21T13:19:33.435Z,6.50
2019-04-21T13:22:01.453Z,6.20
2019-04-21T13:24:27.865Z,5.37
2019-04-21T13:26:59.491Z,6.35
2019-04-21T13:29:22.140Z,8.15
2019-04-21T13:31:50.026Z,5.40
2019-04-21T13:34:17.907Z,8.58
2019-04-21T13:36:45.546Z,5.53
2019-04-21T13:39:52.255Z,4.95
2019-04-21T13:42:02.760Z,9.05
2019-04-21T13:44:21.481Z,9.08
2019-04-21T13:46:49.174Z,8.88
2019-04-21T13:49:17.239Z,5.60
2019-04-21T13:51:44.093Z,8.08
2019-04-21T13:54:11.467Z,6.05
2019-04-21T13:56:38.552Z,8.13
2019-04-21T13:59:06.492Z,6.97
2019-04-21T14:01:33.951Z,12.33
2019-04-21T14:04:03.180Z,8.25
2019-04-21T14:06:30.148Z,7.78
2019-04-21T14:08:56.978Z,7.00
2019-04-21T14:11:23.653Z,9.33
2019-04-21T14:13:50.426Z,8.90
2019-04-21T14:16:18.116Z,11.65
2019-04-21T14:18:45.558Z,12.50
2019-04-21T14:21:13.256Z,12.28
2019-04-21T14:23:44.659Z,11.08
2019-04-21T14:26:08.683Z,8.83
2019-04-21T14:28:34.939Z,11.05
2019-04-21T14:31:02.262Z,11.28
2019-04-21T14:33:29.787Z,10.32
2019-04-21T14:35:56.903Z,8.60
2019-04-21T14:38:24.815Z,11.10
2019-04-21T14:40:52.122Z,7.03
2019-04-21T14:43:20.463Z,8.45
2019-04-21T14:46:01.019Z,8.10
2019-04-21T14:48:29.560Z,8.20
2019-04-21T14:51:06.834Z,12.63
2019-04-21T14:53:51.919Z,9.28
2019-04-21T14:56:19.332Z,11.97
2019-04-21T14:58:46.879Z,8.58
2019-04-21T15:01:13.688Z,8.08
2019-04-21T15:03:41.593Z,7.87
2019-04-21T15:06:09.377Z,7.40
2019-04-21T15:08:35.690Z,11.10
2019-04-21T15:11:03.232Z,11.83
2019-04-21T15:13:30.037Z,10.53
2019-04-21T15:15:56.668Z,10.00
2019-04-21T15:18:23.018Z,8.48
2019-04-21T15:20:50.555Z,10.05
2019-04-21T15:23:18.004Z,12.47
2019-04-21T15:25:45.929Z,10.45
2019-04-21T15:28:13.722Z,11.45
2019-04-21T15:30:40.771Z,8.80
2019-04-21T15:33:08.485Z,9.60
2019-04-21T15:35:35.332Z,9.40
2019-04-21T15:38:04.275Z,8.28
2019-04-21T15:40:40.627Z,10.68
2019-04-21T15:43:00.074Z,8.75
2019-04-21T15:45:26.727Z,9.58
2019-04-21T15:47:53.946Z,9.68
2019-04-21T15:50:21.905Z,8.95
2019-04-21T15:52:49.769Z,7.85
2019-04-21T15:55:34.907Z,11.03
2019-04-21T15:58:04.760Z,7.78
2019-04-21T16:00:34.211Z,8.20
2019-04-21T16:03:04.525Z,8.23
2019-04-21T16:05:30.913Z,6.50
2019-04-21T16:07:58.196Z,10.43
2019-04-21T16:10:34.423Z,7.05
2019-04-21T16:12:53.866Z,9.60
2019-04-21T16:15:20.782Z,7.35
2019-04-21T16:17:47.583Z,9.58
2019-04-21T16:20:15.494Z,9.38
2019-04-21T16:22:42.338Z,7.45
2019-04-21T16:25:08.886Z,7.40
2019-04-21T16:27:35.218Z,6.33
2019-04-21T16:30:07.822Z,7.95
2019-04-21T16:32:34.444Z,7.08
2019-04-21T16:35:05.315Z,7.15
2019-04-21T16:37:29.782Z,6.55
2019-04-21T16:39:56.182Z,7.17
2019-04-21T16:42:22.692Z,5.47
2019-04-21T16:44:49.265Z,6.30
2019-04-21T16:47:15.587Z,4.37
2019-04-21T16:49:41.832Z,8.28
2019-04-21T16:52:13.970Z,7.30
2019-04-21T16:54:42.423Z,6.17
2019-04-21T16:57:17.635Z,5.15
2019-04-21T16:59:46.551Z,5.58
2019-04-21T17:02:12.829Z,7.85
2019-04-21T17:04:40.265Z,4.47
2019-04-21T17:07:07.374Z,8.83
2019-04-21T17:09:34.697Z,7.10
2019-04-21T17:12:05.555Z,8.05
2019-04-21T17:14:48.196Z,6.20
2019-04-21T17:17:19.089Z,4.58
2019-04-21T17:19:29.845Z,5.30
2019-04-21T17:21:53.390Z,5.70
2019-04-21T17:24:20.177Z,3.62
2019-04-21T17:26:48.193Z,6.37
2019-04-21T17:29:14.708Z,5.40
2019-04-21T17:31:41.440Z,7.17
2019-04-21T17:34:13.716Z,5.28
2019-04-21T17:36:37.142Z,6.00
2019-04-21T17:39:05.026Z,4.05
2019-04-21T17:41:40.968Z,4.42
2019-04-21T17:44:00.413Z,4.50
2019-04-21T17:46:36.853Z,3.30
2019-04-21T17:48:54.831Z,3.47
2019-04-21T17:51:23.444Z,3.70
2019-04-21T17:53:55.130Z,4.08
2019-04-21T17:56:51.087Z,3.80
2019-04-21T17:59:06.185Z,2.60
2019-04-21T18:01:40.629Z,2.55
2019-04-21T18:04:12.594Z,3.50
2019-04-21T18:06:40.713Z,3.72
2019-04-21T18:09:15.553Z,3.47
2019-04-21T18:11:39.562Z,2.70
2019-04-21T18:13:47.188Z,2.17
2019-04-21T18:16:26.834Z,2.62
2019-04-21T18:18:41.625Z,3.15
2019-04-21T18:21:16.616Z,3.27
2019-04-21T18:23:54.192Z,2.47
2019-04-21T18:26:24.704Z,2.30
2019-04-21T18:28:41.030Z,3.02
2019-04-21T18:31:12.258Z,2.75
2019-04-21T18:33:43.229Z,2.30
2019-04-21T18:36:13.433Z,3.30
2019-04-21T18:39:06.950Z,2.37
2019-04-21T18:41:19.716Z,1.82
2019-04-21T18:46:58.665Z,1.87
2019-04-21T18:49:15.341Z,3.20
2019-04-21T18:51:58.780Z,2.65
2019-04-21T18:54:36.078Z,2.10
2019-04-21T18:56:59.131Z,2.50
2019-04-21T18:59:12.478Z,3.25
2019-04-21T19:01:40.329Z,2.40
2019-04-21T19:04:14.382Z,2.27
2019-04-21T19:06:54.525Z,2.02
2019-04-21T19:09:24.899Z,2.30
2019-04-21T19:11:51.830Z,2.10
2019-04-21T19:17:29.182Z,2.03
2019-04-21T19:21:55.262Z,2.20
2019-04-21T19:24:28.156Z,1.85
2019-04-21T19:26:52.467Z,1.95
2019-04-21T19:29:20.052Z,2.02
2019-04-21T19:31:48.230Z,1.67
2019-04-21T19:34:02.035Z,2.83
2019-04-21T19:36:21.523Z,4.08
2019-04-21T19:38:58.355Z,3.22
2019-04-21T19:41:32.458Z,2.50
2019-04-21T19:44:03.653Z,2.72
2019-04-21T19:46:27.843Z,2.35
2019-04-21T19:49:04.289Z,2.30
2019-04-21T19:51:22.026Z,2.15
2019-04-21T19:53:51.627Z,2.12
2019-04-21T19:56:05.980Z,2.45
2019-04-21T19:58:36.947Z,2.87
2019-04-21T20:01:01.652Z,4.00
2019-04-21T20:03:28.467Z,4.95
2019-04-21T20:06:05.943Z,3.85
2019-04-21T20:08:36.219Z,2.95
2019-04-21T20:11:10.483Z,2.67
2019-04-21T20:13:56.896Z,2.92
2019-04-21T20:16:07.979Z,2.08
2019-04-21T20:18:26.191Z,2.72
2019-04-21T20:20:43.855Z,2.42
2019-04-21T20:23:19.235Z,2.35
2019-04-21T20:25:45.320Z,2.27
2019-04-21T20:28:17.385Z,2.25
2019-04-21T20:30:56.037Z,2.30
2019-04-21T20:33:45.766Z,2.15
2019-04-21T20:38:12.535Z,2.52
2019-04-21T20:40:39.963Z,2.80
2019-04-21T20:43:16.440Z,3.22
2019-04-21T20:45:59.273Z,2.92
2019-04-21T20:47:55.704Z,2.50
2019-04-21T20:50:33.384Z,2.00
2019-04-21T20:53:04.775Z,2.37
2019-04-21T20:55:26.498Z,2.33
2019-04-21T20:57:53.703Z,2.40
2019-04-21T21:00:29.931Z,2.37
2019-04-21T21:03:02.739Z,3.80
2019-04-21T21:05:23.332Z,2.47
2019-04-21T21:07:57.040Z,2.70
2019-04-21T21:10:21.756Z,2.92
2019-04-21T21:12:58.877Z,2.65
2019-04-21T21:15:22.790Z,2.85
2019-04-21T21:18:01.526Z,2.40
2019-04-21T21:20:24.579Z,2.92
2019-04-21T21:22:46.838Z,2.77
2019-04-21T21:25:29.227Z,2.70
2019-04-21T21:27:41.801Z,2.98
2019-04-21T21:30:10.030Z,2.80
2019-04-21T21:32:47.790Z,2.67
2019-04-21T21:35:10.339Z,2.90
2019-04-21T21:37:44.327Z,2.80
2019-04-21T21:40:11.172Z,2.72
2019-04-21T21:42:23.137Z,2.40
2019-04-21T21:44:52.052Z,2.52
2019-04-21T21:47:24.114Z,2.83
2019-04-21T21:49:52.830Z,3.40
2019-04-21T21:52:22.209Z,3.22
2019-04-21T21:54:37.950Z,3.05
2019-04-21T21:57:04.872Z,2.77
2019-04-21T21:59:34.824Z,4.95
2019-04-21T22:02:00.225Z,3.35
2019-04-21T22:04:31.783Z,4.20
2019-04-21T22:07:02.545Z,4.90
2019-04-21T22:09:24.229Z,3.00
2019-04-21T22:11:56.558Z,4.03
2019-04-21T22:14:25.986Z,3.67
2019-04-21T22:16:59.375Z,3.40
2019-04-21T22:19:33.595Z,2.80
2019-04-21T22:22:00.949Z,3.60
2019-04-21T22:24:29.512Z,3.50
2019-04-21T22:26:39.020Z,3.00
2019-04-21T22:29:05.644Z,3.17
2019-04-21T22:31:35.502Z,2.60
2019-04-21T22:34:05.213Z,4.45
2019-04-21T22:36:42.668Z,3.33
2019-04-21T22:39:13.337Z,4.67
2019-04-21T22:41:31.019Z,3.40
2019-04-21T22:43:55.230Z,3.10
2019-04-21T22:46:20.258Z,3.27
2019-04-21T22:48:55.938Z,3.25
2019-04-21T22:51:23.977Z,3.87
2019-04-21T22:53:47.223Z,3.83
2019-04-21T22:56:17.652Z,3.70
2019-04-21T22:58:42.241Z,3.60
2019-04-21T23:01:09.653Z,2.12
2019-04-21T23:03:42.568Z,4.85
2019-04-21T23:06:09.731Z,3.87
2019-04-21T23:08:36.980Z,4.20
2019-04-21T23:11:04.999Z,3.70
2019-04-21T23:13:29.313Z,4.03
2019-04-21T23:15:58.800Z,4.47
2019-04-21T23:18:40.115Z,4.47
2019-04-21T23:21:10.652Z,4.20
2019-04-21T23:23:44.094Z,3.62
2019-04-21T23:26:09.065Z,6.05
2019-04-21T23:28:40.568Z,5.30
2019-04-21T23:31:09.848Z,5.60
2019-04-21T23:33:19.192Z,5.78
2019-04-21T23:35:45.722Z,5.65
2019-04-21T23:38:12.377Z,6.12
2019-04-21T23:40:41.922Z,8.00
2019-04-21T23:43:11.441Z,6.58
2019-04-21T23:45:38.255Z,6.67
2019-04-21T23:48:19.723Z,6.30
2019-04-21T23:50:41.882Z,4.72
2019-04-21T23:52:59.422Z,7.10
2019-04-21T23:55:27.236Z,6.33
2019-04-21T23:58:04.962Z,6.47
